Data for 01/08/2015

Time Sea-Level Adjusted Pressure Absolute Pressure Temperature Relative Humidity Dew Point   
(mb) (inHg) (mb) (inHg) (C) (F) (%) (C) (F)
00:05 1023 30.21 852 25.16 -0.8 30.5 73 -5.1 22.8
00:10 1023 30.21 852 25.16 -0.1 31.8 68 -5.3 22.5
00:15 1023 30.21 852 25.16 -0 32 69 -5 22.9
00:20 1023 30.21 852 25.16 -0.6 30.9 73 -4.8 23.3
00:25 1023 30.21 852 25.16 -0.9 30.4 72 -5.3 22.5
00:30 1023 30.21 852 25.16 -1.6 29.1 76 -5.3 22.4
00:35 1023 30.21 852 25.16 -1.8 28.8 75 -5.7 21.8
00:40 1023 30.21 852 25.16 -1.8 28.8 74 -5.8 21.6
00:45 1023 30.21 852 25.16 -2 28.4 77 -5.5 22.1
00:50 1023 30.21 852 25.16 -1.8 28.8 75 -5.7 21.8
00:55 1023 30.21 852 25.16 -2.3 27.8 78 -5.7 21.8
01:00 1023 30.21 852 25.16 -2.1 28.3 74 -6 21.1
01:05 1023 30.21 852 25.16 -2.6 27.4 75 -6.4 20.6
01:10 1023 30.21 852 25.16 -3 26.6 76 -6.6 20.1
01:15 1023 30.21 852 25.16 -3.4 25.9 77 -6.9 19.6
01:20 1023 30.21 853 25.19 -3.9 25 74 -7.9 17.8
01:25 1023 30.21 852 25.16 -4.8 23.4 75 -8.5 16.7
01:30 1023 30.21 852 25.16 -5.5 22.1 76 -9.2 15.5
01:35 1023 30.21 852 25.16 -5.9 21.5 77 -9.2 15.4
01:40 1023 30.21 852 25.16 -5.9 21.4 76 -9.5 15
01:45 1023 30.21 852 25.16 -6.3 20.6 78 -9.6 14.7
01:50 1023 30.21 852 25.16 -6.6 20 78 -9.8 14.3
01:55 1023 30.21 852 25.16 -6.5 20.2 77 -10 14
02:00 1023 30.21 852 25.16 -6.5 20.4 77 -9.8 14.4
02:05 1023 30.21 852 25.16 -6.4 20.5 78 -9.7 14.6
02:10 1023 30.21 852 25.16 -6.4 20.4 78 -9.6 14.7
02:15 1023 30.21 852 25.16 -6.5 20.3 79 -9.5 14.8
02:20 1023 30.21 852 25.16 -6.6 20.1 80 -9.6 14.7
02:25 1023 30.21 852 25.16 -6.8 19.8 81 -9.6 14.8
02:30 1023 30.21 852 25.16 -6.8 19.8 80 -9.7 14.6
02:35 1023 30.21 852 25.16 -6.6 20.1 79 -9.7 14.5
02:40 1023 30.21 852 25.16 -6.2 20.8 78 -9.4 15.1
02:45 1023 30.21 852 25.16 -5.8 21.6 78 -9 15.8
02:50 1023 30.21 852 25.16 -5.2 22.7 76 -8.9 16
02:55 1023 30.21 852 25.16 -5.1 22.8 77 -8.5 16.7
03:00 1023 30.21 852 25.16 -5.1 22.8 79 -8.2 17.3
03:05 1023 30.21 852 25.16 -4.7 23.5 80 -7.7 18.1
03:10 1023 30.21 852 25.16 -4.5 23.8 79 -7.6 18.3
03:15 1023 30.21 852 25.16 -4.5 24 81 -7.2 19
03:20 1023 30.21 852 25.16 -4.6 23.8 81 -7.3 18.9
03:25 1023 30.21 852 25.16 -4.7 23.6 81 -7.4 18.7
03:30 1023 30.21 852 25.16 -4.5 23.9 81 -7.4 18.7
03:35 1023 30.21 852 25.16 -4.5 23.8 82 -7.1 19.1
03:40 1023 30.21 853 25.19 -4.2 24.5 80 -7 19.3
03:45 1023 30.21 853 25.19 -3.8 25.2 80 -6.8 19.8
03:50 1023 30.21 853 25.19 -3.5 25.7 78 -6.8 19.7
03:55 1023 30.21 852 25.16 -3.5 25.6 78 -6.8 19.8
04:00 1023 30.21 853 25.19 -3.7 25.3 79 -6.8 19.7
04:05 1023 30.21 852 25.16 -3.8 25.2 81 -6.6 20.1
04:10 1023 30.21 852 25.16 -3.4 25.8 78 -6.7 20
04:15 1023 30.21 852 25.16 -3.7 25.4 80 -6.6 20.1
04:20 1023 30.21 852 25.16 -4.1 24.6 81 -6.9 19.6
04:25 1023 30.21 852 25.16 -4.4 24.1 85 -6.6 20.1
04:30 1023 30.21 852 25.16 -3.7 25.4 80 -6.6 20.1
04:35 1023 30.21 852 25.16 -3.4 25.8 81 -6.3 20.7
04:40 1023 30.21 852 25.16 -3.5 25.7 84 -5.9 21.3
04:45 1023 30.21 852 25.16 -2.9 26.8 83 -5.4 22.4
04:50 1023 30.21 852 25.16 -2 28.4 81 -4.8 23.3
04:55 1023 30.21 852 25.16 -1.7 29 80 -4.6 23.7
05:00 1023 30.21 852 25.16 -1.3 29.6 81 -4.2 24.4
05:05 1023 30.21 852 25.16 -1.1 30 79 -4.2 24.4
05:10 1023 30.21 852 25.16 -0.8 30.5 80 -4 24.9
05:15 1023 30.21 852 25.16 -0.7 30.7 78 -4 24.8
05:20 1023 30.21 852 25.16 -0.9 30.3 78 -4.3 24.2
05:25 1023 30.21 852 25.16 -1.5 29.4 80 -4.5 23.9
05:30 1023 30.21 852 25.16 -1.7 28.9 80 -4.7 23.5
05:35 1023 30.21 852 25.16 -2.1 28.2 82 -4.8 23.4
05:40 1023 30.21 852 25.16 -2.5 27.6 82 -5.2 22.7
05:45 1023 30.21 852 25.16 -3 26.6 84 -5.4 22.3
05:50 1023 30.21 852 25.16 -3.3 26.1 86 -5.3 22.4
05:55 1023 30.21 852 25.16 -3.3 26 86 -5.4 22.3
06:00 1023 30.21 852 25.16 -3.4 25.9 83 -5.8 21.5
06:05 1022 30.18 852 25.16 -3.6 25.5 82 -6.2 20.8
06:10 1022 30.18 852 25.16 -4 24.9 83 -6.4 20.5
06:15 1023 30.21 852 25.16 -4.2 24.5 84 -6.5 20.3
06:20 1023 30.21 852 25.16 -4.3 24.2 86 -6.4 20.5
06:25 1023 30.21 852 25.16 -4.5 24 87 -6.3 20.6
06:30 1022 30.18 852 25.16 -4.6 23.7 86 -6.6 20.1
06:35 1023 30.21 852 25.16 -4.8 23.3 86 -6.9 19.6
06:40 1023 30.21 852 25.16 -5.1 22.8 86 -7.1 19.1
06:45 1023 30.21 852 25.16 -5.3 22.5 86 -7.2 19.1
06:50 1023 30.21 852 25.16 -5.3 22.5 86 -7.3 18.8
06:55 1023 30.21 852 25.16 -5.3 22.4 84 -7.7 18.2
07:00 1023 30.21 852 25.16 -5.3 22.4 82 -7.9 17.8
07:05 1023 30.21 852 25.16 -5.4 22.2 82 -8 17.6
07:10 1023 30.21 852 25.16 -5.7 21.8 83 -8.1 17.3
07:15 1023 30.21 852 25.16 -6 21.3 84 -8.2 17.2
07:20 1023 30.21 852 25.16 -6.1 21 85 -8.3 17.1
07:25 1023 30.21 852 25.16 -6.1 21 84 -8.4 17
07:30 1023 30.21 852 25.16 -6.2 20.8 85 -8.4 16.9
07:35 1023 30.21 853 25.19 -6.3 20.7 85 -8.4 16.8
07:40 1023 30.21 853 25.19 -6.3 20.7 85 -8.5 16.7
07:45 1024 30.24 853 25.19 -6.3 20.7 84 -8.5 16.7
07:50 1024 30.24 853 25.19 -6.3 20.7 85 -8.5 16.7
07:55 1024 30.24 853 25.19 -6.3 20.6 85 -8.5 16.7
08:00 1024 30.24 853 25.19 -6.4 20.5 84 -8.7 16.4
08:05 1024 30.24 853 25.19 -6.4 20.6 83 -8.7 16.3
08:10 1024 30.24 853 25.19 -6.4 20.4 85 -8.6 16.5
08:15 1024 30.24 853 25.19 -6.1 21.1 84 -8.4 16.9
08:20 1024 30.24 853 25.19 -6 21.3 83 -8.4 16.8
08:25 1024 30.24 853 25.19 -6.1 21 84 -8.5 16.8
08:30 1024 30.24 853 25.19 -6.2 20.8 84 -8.5 16.7
08:35 1024 30.24 853 25.19 -6.5 20.3 85 -8.6 16.6
08:40 1024 30.24 853 25.19 -6.5 20.4 86 -8.4 16.9
08:45 1024 30.24 853 25.19 -6.3 20.7 87 -8.1 17.4
08:50 1024 30.24 853 25.19 -5.9 21.3 88 -7.7 18.2
08:55 1024 30.24 853 25.19 -5.5 22 86 -7.5 18.4
09:00 1024 30.24 854 25.22 -5.4 22.2 86 -7.4 18.7
09:05 1025 30.27 854 25.22 -4.9 23.2 82 -7.5 18.5
09:10 1025 30.27 854 25.22 -4.7 23.6 80 -7.6 18.3
09:15 1025 30.27 854 25.22 -4.8 23.4 80 -7.7 18.1
09:20 1025 30.27 854 25.22 -5.1 22.8 80 -8 17.7
09:25 1025 30.27 854 25.22 -5.3 22.5 80 -8.1 17.3
09:30 1025 30.27 854 25.22 -5.4 22.3 80 -8.3 17.1
09:35 1025 30.27 854 25.22 -5.5 22.1 80 -8.4 16.9
09:40 1025 30.27 854 25.22 -5.5 22.1 80 -8.3 17
09:45 1025 30.27 854 25.22 -5.6 21.9 81 -8.3 17
09:50 1025 30.27 854 25.22 -5.9 21.3 84 -8.2 17.3
09:55 1025 30.27 854 25.22 -6.1 21.1 84 -8.3 17.1
10:00 1025 30.27 855 25.25 -6 21.3 85 -8.1 17.4
10:05 1025 30.27 855 25.25 -5.8 21.6 84 -8.1 17.5
10:10 1026 30.3 855 25.25 -5.7 21.8 84 -8 17.6
10:15 1026 30.3 855 25.25 -5.6 21.9 84 -7.9 17.8
10:20 1026 30.3 855 25.25 -5.5 22.1 83 -8 17.7
10:25 1026 30.3 855 25.25 -5.4 22.3 82 -8 17.7
10:30 1026 30.3 855 25.25 -5.3 22.4 81 -8.1 17.4
10:35 1026 30.3 855 25.25 -5.2 22.7 78 -8.4 16.9
10:40 1026 30.3 856 25.28 -4.9 23.2 78 -8.1 17.4
10:45 1026 30.3 856 25.28 -4.7 23.6 78 -7.9 17.7
10:50 1027 30.33 856 25.28 -4.5 23.9 77 -7.9 17.8
10:55 1027 30.33 856 25.28 -4.4 24 77 -7.8 17.9
11:00 1027 30.33 856 25.28 -4.3 24.3 77 -7.7 18.1
11:05 1027 30.33 856 25.28 -4.3 24.3 78 -7.6 18.4
11:10 1027 30.33 856 25.28 -4.3 24.3 79 -7.4 18.7
11:15 1027 30.33 856 25.28 -4.3 24.2 81 -7.2 19.1
11:20 1027 30.33 856 25.28 -4.5 24 81 -7.3 18.9
11:25 1027 30.33 856 25.28 -4.6 23.8 82 -7.1 19.1
11:30 1027 30.33 856 25.28 -4.7 23.5 84 -7.1 19.3
11:35 1027 30.33 857 25.31 -4.6 23.6 84 -7 19.4
11:40 1027 30.33 857 25.31 -4.5 23.8 84 -6.8 19.7
11:45 1027 30.33 857 25.31 -4.4 24 84 -6.7 20
11:50 1028 30.36 857 25.31 -4.4 24.1 85 -6.6 20.1
11:55 1028 30.36 857 25.31 -4.4 24.1 85 -6.6 20.2
12:00 1028 30.36 857 25.31 -4.4 24.1 85 -6.5 20.3
12:05 1028 30.36 857 25.31 -4.4 24 86 -6.5 20.3
12:10 1028 30.36 857 25.31 -4.5 24 86 -6.4 20.4
12:15 1028 30.36 857 25.31 -4.4 24.1 86 -6.4 20.4
12:20 1028 30.36 857 25.31 -4.4 24.1 85 -6.5 20.4
12:25 1028 30.36 857 25.31 -4.4 24.1 85 -6.5 20.2
12:30 1028 30.36 857 25.31 -4.4 24.2 84 -6.7 20
12:35 1028 30.36 857 25.31 -4.4 24 83 -6.9 19.6
12:40 1028 30.36 857 25.31 -4.5 23.9 82 -7.1 19.2
12:45 1028 30.36 857 25.31 -4.4 24 80 -7.3 18.8
12:50 1028 30.36 857 25.31 -4.4 24.1 79 -7.5 18.5
12:55 1028 30.36 857 25.31 -4.4 24 77 -7.9 17.8
13:00 1028 30.36 858 25.34 -4.5 23.9 76 -8.2 17.3
13:05 1028 30.36 858 25.34 -4.7 23.6 74 -8.6 16.5
13:10 1028 30.36 858 25.34 -4.9 23.1 74 -8.9 16
13:15 1029 30.39 858 25.34 -5.2 22.7 74 -9.1 15.6
13:20 1029 30.39 858 25.34 -5.4 22.3 74 -9.3 15.2
13:25 1029 30.39 858 25.34 -5.5 22 75 -9.3 15.3
13:30 1029 30.39 858 25.34 -5.8 21.6 77 -9.2 15.5
13:35 1029 30.39 858 25.34 -5.9 21.3 79 -9 15.7
13:40 1029 30.39 858 25.34 -6 21.2 79 -9.1 15.6
13:45 1029 30.39 858 25.34 -6.2 20.9 82 -8.8 16.2
13:50 1029 30.39 858 25.34 -6.4 20.5 82 -8.9 15.9
13:55 1029 30.39 858 25.34 -6.5 20.3 82 -9 15.7
14:00 1029 30.39 858 25.34 -6.5 20.3 86 -8.5 16.6
14:05 1029 30.39 858 25.34 -6.4 20.4 85 -8.5 16.6
14:10 1029 30.39 858 25.34 -6.5 20.2 87 -8.4 16.9
14:15 1029 30.39 858 25.34 -6.5 20.3 87 -8.3 17.1
14:20 1029 30.39 858 25.34 -6.5 20.4 87 -8.3 17.1
14:25 1029 30.39 858 25.34 -6.5 20.3 87 -8.3 17.1
14:30 1029 30.39 858 25.34 -6.4 20.4 88 -8.1 17.5
14:35 1029 30.39 858 25.34 -6.6 20.1 88 -8.2 17.3
14:40 1029 30.39 858 25.34 -6.8 19.7 91 -8.1 17.4
14:45 1029 30.39 858 25.34 -6.7 20 89 -8.2 17.3
14:50 1029 30.39 858 25.34 -6.8 19.7 92 -8 17.6
14:55 1029 30.39 858 25.34 -6.8 19.7 90 -8.2 17.2
15:00 1029 30.39 858 25.34 -7 19.4 90 -8.3 17
15:05 1029 30.39 858 25.34 -7.1 19.3 89 -8.6 16.5
15:10 1029 30.39 858 25.34 -7.2 19.1 90 -8.6 16.5
15:15 1029 30.39 858 25.34 -7.2 19.1 88 -8.8 16.2
15:20 1029 30.39 858 25.34 -7.1 19.3 89 -8.6 16.5
15:25 1029 30.39 858 25.34 -6.9 19.6 87 -8.7 16.3
15:30 1029 30.39 858 25.34 -7 19.4 88 -8.6 16.5
15:35 1029 30.39 858 25.34 -6.9 19.5 88 -8.5 16.6
15:40 1029 30.39 858 25.34 -6.9 19.6 88 -8.6 16.6
15:45 1029 30.39 858 25.34 -6.9 19.6 88 -8.6 16.5
15:50 1029 30.39 858 25.34 -7.1 19.3 87 -8.8 16.1
15:55 1029 30.39 858 25.34 -7.2 19 88 -8.9 15.9
16:00 1029 30.39 858 25.34 -7.3 18.9 88 -9 15.9
16:05 1029 30.39 859 25.37 -7.5 18.5 89 -9.1 15.6
16:10 1029 30.39 859 25.37 -7.7 18.1 89 -9.2 15.4
16:15 1029 30.39 859 25.37 -7.9 17.9 90 -9.3 15.3
16:20 1029 30.39 859 25.37 -7.9 17.8 90 -9.3 15.3
16:25 1029 30.39 859 25.37 -8 17.6 90 -9.3 15.2
16:30 1030 30.42 859 25.37 -8.1 17.5 90 -9.5 14.9
16:35 1030 30.42 859 25.37 -8.3 17.1 91 -9.6 14.8
16:40 1030 30.42 859 25.37 -8.3 17.1 91 -9.5 14.8
16:45 1030 30.42 859 25.37 -8.4 17 91 -9.6 14.7
16:50 1030 30.42 859 25.37 -8.5 16.7 91 -9.7 14.6
16:55 1030 30.42 859 25.37 -8.4 16.8 90 -9.8 14.4
17:00 1030 30.42 859 25.37 -8.5 16.6 91 -9.8 14.3
17:05 1030 30.42 859 25.37 -8.6 16.5 90 -9.9 14.1
17:10 1030 30.42 860 25.4 -8.7 16.4 90 -10 14
17:15 1030 30.42 860 25.4 -8.7 16.3 90 -10 13.9
17:20 1031 30.45 860 25.4 -8.8 16.2 90 -10.2 13.7
17:25 1031 30.45 860 25.4 -8.8 16.2 90 -10.1 13.8
17:30 1031 30.45 860 25.4 -8.8 16.2 90 -10.2 13.6
17:35 1031 30.45 860 25.4 -8.8 16.1 89 -10.3 13.5
17:40 1031 30.45 860 25.4 -8.9 15.9 88 -10.5 13
17:45 1031 30.45 860 25.4 -9.1 15.6 88 -10.7 12.7
17:50 1031 30.45 860 25.4 -9.3 15.2 88 -10.9 12.4
17:55 1031 30.45 860 25.4 -9.4 15 89 -11 12.2
18:00 1031 30.45 860 25.4 -9.6 14.7 90 -11 12.3
18:05 1031 30.45 860 25.4 -9.6 14.7 90 -10.9 12.4
18:10 1031 30.45 861 25.43 -9.6 14.7 89 -11 12.1
18:15 1031 30.45 861 25.43 -9.5 14.9 90 -10.9 12.4
18:20 1031 30.45 861 25.43 -9.5 15 89 -10.9 12.3
18:25 1031 30.45 861 25.43 -9.6 14.8 89 -11 12.2
18:30 1032 30.47 861 25.43 -9.7 14.6 89 -11.1 11.9
18:35 1032 30.47 861 25.43 -9.8 14.4 90 -11.1 11.9
18:40 1032 30.47 861 25.43 -9.8 14.4 90 -11.2 11.9
18:45 1032 30.47 861 25.43 -9.9 14.2 90 -11.2 11.9
18:50 1032 30.47 861 25.43 -9.9 14.1 90 -11.3 11.7
18:55 1032 30.47 861 25.43 -9.8 14.3 90 -11.2 11.8
19:00 1032 30.47 861 25.43 -9.9 14.1 90 -11.3 11.7
19:05 1032 30.47 861 25.43 -10 14 89 -11.4 11.4
19:10 1032 30.47 861 25.43 -10.2 13.7 90 -11.5 11.3
19:15 1032 30.47 861 25.43 -10.1 13.8 90 -11.5 11.3
19:20 1032 30.47 861 25.43 -10.1 13.8 89 -11.6 11.2
19:25 1032 30.47 861 25.43 -10.1 13.7 90 -11.5 11.3
19:30 1032 30.47 861 25.43 -10.1 13.8 90 -11.5 11.4
19:35 1032 30.47 861 25.43 -10.1 13.9 90 -11.4 11.4
19:40 1032 30.47 861 25.43 -10.1 13.8 89 -11.5 11.2
19:45 1032 30.47 861 25.43 -10.2 13.7 89 -11.6 11.1
19:50 1032 30.47 861 25.43 -10.2 13.7 89 -11.6 11.1
19:55 1032 30.47 861 25.43 -10.3 13.5 88 -11.9 10.6
20:00 1032 30.47 861 25.43 -10.3 13.4 88 -12 10.5
20:05 1032 30.47 861 25.43 -10.4 13.3 87 -12.1 10.2
20:10 1032 30.47 862 25.45 -10.4 13.2 88 -12.1 10.2
20:15 1032 30.47 862 25.45 -10.4 13.3 88 -12.1 10.3
20:20 1032 30.47 861 25.43 -10.4 13.2 87 -12.3 9.9
20:25 1032 30.47 861 25.43 -10.7 12.8 87 -12.5 9.6
20:30 1032 30.47 861 25.43 -10.7 12.7 87 -12.5 9.5
20:35 1032 30.47 861 25.43 -10.7 12.7 87 -12.4 9.6
20:40 1032 30.47 861 25.43 -10.7 12.7 87 -12.5 9.5
20:45 1032 30.47 861 25.43 -10.7 12.8 86 -12.5 9.4
20:50 1032 30.47 861 25.43 -10.7 12.8 86 -12.5 9.5
20:55 1032 30.47 861 25.43 -10.6 12.9 86 -12.6 9.3
21:00 1032 30.47 861 25.43 -10.7 12.7 86 -12.6 9.3
21:05 1031 30.45 861 25.43 -10.7 12.7 86 -12.6 9.3
21:10 1031 30.45 861 25.43 -10.8 12.6 86 -12.7 9.2
21:15 1031 30.45 860 25.4 -10.7 12.7 86 -12.7 9.2
21:20 1031 30.45 860 25.4 -10.8 12.6 86 -12.7 9.1
21:25 1031 30.45 860 25.4 -10.8 12.6 85 -12.8 9
21:30 1031 30.45 860 25.4 -11 12.3 86 -12.9 8.9
21:35 1031 30.45 860 25.4 -11.1 12 87 -12.9 8.7
21:40 1031 30.45 860 25.4 -11.2 11.9 87 -12.9 8.8
21:45 1031 30.45 860 25.4 -11.1 12 87 -12.9 8.7
21:50 1031 30.45 860 25.4 -11.2 11.9 86 -13.1 8.5
21:55 1031 30.45 860 25.4 -11.4 11.5 87 -13.1 8.4
22:00 1031 30.45 860 25.4 -11.4 11.5 87 -13.1 8.4
22:05 1031 30.45 860 25.4 -11.3 11.8 87 -13.1 8.5
22:10 1031 30.45 860 25.4 -11.3 11.6 87 -13 8.5
22:15 1031 30.45 860 25.4 -11.3 11.6 87 -13.1 8.4
22:20 1031 30.45 860 25.4 -11.4 11.5 87 -13.1 8.3
22:25 1031 30.45 860 25.4 -11.5 11.2 88 -13.1 8.4
22:30 1031 30.45 860 25.4 -11.4 11.6 87 -13.1 8.4
22:35 1031 30.45 860 25.4 -11.3 11.7 87 -13.1 8.4
22:40 1031 30.45 860 25.4 -11.3 11.7 86 -13.2 8.2
22:45 1031 30.45 860 25.4 -11.3 11.7 85 -13.4 7.9
22:50 1031 30.45 860 25.4 -11.3 11.6 84 -13.5 7.6
22:55 1031 30.45 860 25.4 -11.4 11.5 84 -13.5 7.7
23:00 1031 30.45 860 25.4 -11.4 11.5 84 -13.6 7.6
23:05 1031 30.45 860 25.4 -11.4 11.4 84 -13.6 7.5
23:10 1031 30.45 860 25.4 -11.4 11.4 84 -13.6 7.6
23:15 1031 30.45 860 25.4 -11.4 11.4 84 -13.7 7.4
23:20 1030 30.42 860 25.4 -11.4 11.4 83 -13.7 7.3
23:25 1030 30.42 860 25.4 -11.4 11.4 83 -13.7 7.3
23:30 1030 30.42 860 25.4 -11.4 11.5 84 -13.7 7.4
23:35 1030 30.42 860 25.4 -11.4 11.4 83 -13.7 7.3
23:40 1030 30.42 860 25.4 -11.4 11.6 83 -13.8 7.2
23:45 1030 30.42 860 25.4 -11.3 11.6 82 -13.8 7.2
23:50 1030 30.42 860 25.4 -11.3 11.7 82 -13.8 7.2
23:55 1030 30.42 860 25.4 -11.3 11.6 82 -13.8 7.1
24:00 1030 30.42 859 25.37 -11.5 11.2 83 -13.9 7